• Join FlightAware (Why Join?)
  • Login
  • US Flag 
08:50AM EDT


 

Airport Tracker/Info


-or-


 

Live Flight TrackerFlight Track Log ✈ RPA3865 ✈ 22-Apr-2013 ✈ KEWR - CYYZ

Flight Track Log - Related Links

Times and Time Zones

All times are in EDT time to prevent confusion due to time zone crossing. See the RPA3865 flight status page for this flight to view local times or setup timezone preferences in your user account.

Time Position Orientation Groundspeed Altitude Reporting Facility
EDT Latitude Longitude Course Direction KTS MPH feet Rate Location/Type
10:10AM 40.7167 -74.1333 37° Northeast 188 216 2,500  Level New York TRACON
10:11AM 40.7667 -74.0833 37° Northeast 225 259 4,700 1,320 Climbing New York TRACON
10:12AM 40.8167 -74.1500 315° West 267 307 5,200 1,200 Climbing New York TRACON
10:13AM 40.8667 -74.2333 308° West 268 308 7,200 1,620 Climbing New York TRACON
10:15AM 40.9406 -74.3586 308° West 284 327 9,600 1,020 Climbing New York Center
10:16AM 40.9961 -74.4494 309° West 285 328 10,100 780 Climbing New York Center
10:17AM 41.0433 -74.5344 306° West 307 353 11,200 1,260 Climbing New York Center
10:18AM 41.1006 -74.6342 307° West 307 353 12,700 1,380 Climbing New York Center
10:19AM 41.1478 -74.7167 307° West 307 353 14,000 1,260 Climbing New York Center
10:20AM 41.1939 -74.8325 298° West 317 365 15,300 1,560 Climbing New York Center
10:21AM 41.2383 -74.9289 302° West 317 365 17,200 1,260 Climbing New York Center
10:22AM 41.2808 -75.0225 301° West 312 359 17,900 1,020 Climbing New York Center
10:23AM 41.3153 -75.1078 298° West 301 346 19,300 1,140 Climbing New York Center
10:24AM 41.3553 -75.2042 299° West 296 341 20,200 1,020 Climbing New York Center
10:25AM 41.3978 -75.2983 301° West 296 341 21,400 1,140 Climbing New York Center
10:26AM 41.4378 -75.3950 299° West 301 346 22,500 960 Climbing New York Center
10:27AM 41.4797 -75.4922 300° West 301 346 23,400 720 Climbing New York Center
10:28AM 41.5089 -75.5967 290° West 301 346 24,000 300 Climbing New York Center
10:29AM 41.5397 -75.7042 291° West 309 356 24,000  Level New York Center
10:30AM 41.5744 -75.8206 292° West 321 369 24,000  Level New York Center
10:31AM 41.6067 -75.9394 290° West 332 382 24,000  Level New York Center
10:32AM 41.6411 -76.0586 291° West 339 390 24,000  Level New York Center
10:33AM 41.6753 -76.1808 291° West 344 396 24,000  Level New York Center
10:34AM 41.7072 -76.3000 290° West 344 396 24,000  Level New York Center
10:35AM 41.7411 -76.4225 290° West 344 396 24,000  Level New York Center
10:36AM 41.7847 -76.5542 294° West 349 402 24,000  Level New York Center
10:37AM 41.8506 -76.6517 312° West 349 402 24,000  Level New York Center
10:38AM 41.9544 -76.8106 311° West 352 405 24,000  Level Cleveland Center
10:39AM 42.0203 -76.9131 311° West 357 411 24,000  Level Cleveland Center
10:40AM 42.0858 -77.0128 312° West 357 411 24,000  Level Cleveland Center
10:41AM 42.1436 -77.1217 306° West 362 417 24,000  Level Cleveland Center
10:42AM 42.2008 -77.2306 305° West 362 417 24,000  Level Cleveland Center
10:43AM 42.2603 -77.3397 306° West 362 417 24,000  Level Cleveland Center
10:44AM 42.3175 -77.4492 305° West 367 422 24,000  Level Cleveland Center
10:45AM 42.3747 -77.5589 305° West 367 422 24,000  Level Cleveland Center
10:46AM 42.4339 -77.6742 305° West 367 422 24,000  Level Cleveland Center
10:47AM 42.4889 -77.7842 304° West 367 422 24,000  Level Cleveland Center
10:48AM 42.5411 -77.8833 306° West 367 422 24,000  Level Cleveland Center
10:49AM 42.6000 -77.9939 306° West 367 422 24,000  Level Cleveland Center
10:50AM 42.6567 -78.1072 304° West 367 422 24,000  Level Cleveland Center
10:51AM 42.7111 -78.2153 304° West 367 422 24,000 -660 Level Cleveland Center
10:52AM 42.7675 -78.3236 305° West 367 422 22,700 -1,980 Descending Cleveland Center
10:53AM 42.8153 -78.4350 300° West 360 414 20,100 -2,280 Descending Cleveland Center
10:54AM 42.8178 -78.5622 272° West 331 381 18,200 -2,220 Descending Cleveland Center
10:55AM 42.8158 -78.6953 269° West 339 390 15,700 -2,100 Descending Cleveland Center
10:56AM 42.8467 -78.8106 290° West 345 397 14,000 -900 Descending Cleveland Center
10:57AM 42.9189 -78.8964 319° Northwest 326 375 14,000 -120 Level Cleveland Center
10:58AM 43.0000 -78.9667 328° Northwest 330 380 13,800 -600 Descending Toronto Center
10:59AM 43.0667 -79.0333 324° Northwest 310 357 12,800 -1,020 Descending Toronto Center